sensor_id;sensor_type;location;lat;lon;timestamp;pressure;altitude;pressure_sealevel;temperature;humidity
4814;BME280;15375;48.540;9.268;2023-02-23T00:01:58;97006.53;;;8.50;100.00
4814;BME280;15375;48.540;9.268;2023-02-23T00:04:30;97001.09;;;8.50;100.00
4814;BME280;15375;48.540;9.268;2023-02-23T00:06:55;96985.72;;;8.40;100.00
4814;BME280;15375;48.540;9.268;2023-02-23T00:09:20;97002.22;;;8.52;100.00
4814;BME280;15375;48.540;9.268;2023-02-23T00:11:54;96996.81;;;8.49;100.00
4814;BME280;15375;48.540;9.268;2023-02-23T00:14:23;96999.91;;;8.51;100.00
4814;BME280;15375;48.540;9.268;2023-02-23T00:16:51;96985.41;;;8.34;100.00
4814;BME280;15375;48.540;9.268;2023-02-23T00:19:17;96989.59;;;8.39;100.00
4814;BME280;15375;48.540;9.268;2023-02-23T00:21:42;96987.72;;;8.36;100.00
4814;BME280;15375;48.540;9.268;2023-02-23T00:24:10;96999.66;;;8.42;100.00
4814;BME280;15375;48.540;9.268;2023-02-23T00:26:37;96998.06;;;8.44;100.00
4814;BME280;15375;48.540;9.268;2023-02-23T00:29:06;96995.34;;;8.44;100.00
4814;BME280;15375;48.540;9.268;2023-02-23T00:31:32;96997.75;;;8.39;100.00
4814;BME280;15375;48.540;9.268;2023-02-23T00:34:00;96995.50;;;8.33;100.00
4814;BME280;15375;48.540;9.268;2023-02-23T00:36:29;96983.56;;;8.27;100.00
4814;BME280;15375;48.540;9.268;2023-02-23T00:38:56;96980.78;;;8.31;100.00
4814;BME280;15375;48.540;9.268;2023-02-23T00:41:22;96969.63;;;8.22;100.00
4814;BME280;15375;48.540;9.268;2023-02-23T00:43:53;96996.22;;;8.38;100.00
4814;BME280;15375;48.540;9.268;2023-02-23T00:46:21;96964.53;;;8.27;100.00
4814;BME280;15375;48.540;9.268;2023-02-23T00:48:48;96989.19;;;8.40;100.00
4814;BME280;15375;48.540;9.268;2023-02-23T00:51:15;96970.69;;;8.31;100.00
4814;BME280;15375;48.540;9.268;2023-02-23T00:53:42;96985.59;;;8.47;100.00
4814;BME280;15375;48.540;9.268;2023-02-23T00:56:09;96976.88;;;8.32;100.00
4814;BME280;15375;48.540;9.268;2023-02-23T00:58:35;96973.72;;;8.37;100.00
4814;BME280;15375;48.540;9.268;2023-02-23T01:01:01;96981.44;;;8.39;100.00
4814;BME280;15375;48.540;9.268;2023-02-23T01:03:28;96981.09;;;8.37;100.00
4814;BME280;15375;48.540;9.268;2023-02-23T01:05:58;96975.41;;;8.27;100.00
4814;BME280;15375;48.540;9.268;2023-02-23T01:08:23;96974.59;;;8.30;100.00
4814;BME280;15375;48.540;9.268;2023-02-23T01:10:49;96976.78;;;8.39;100.00
4814;BME280;15375;48.540;9.268;2023-02-23T01:13:21;96990.72;;;8.41;100.00
4814;BME280;15375;48.540;9.268;2023-02-23T01:15:47;96985.91;;;8.25;100.00
4814;BME280;15375;48.540;9.268;2023-02-23T01:18:15;96991.25;;;8.32;100.00
4814;BME280;15375;48.540;9.268;2023-02-23T01:20:40;96980.03;;;8.30;100.00
4814;BME280;15375;48.540;9.268;2023-02-23T01:23:06;96974.16;;;8.32;100.00
4814;BME280;15375;48.540;9.268;2023-02-23T01:25:33;96982.22;;;8.39;100.00
4814;BME280;15375;48.540;9.268;2023-02-23T01:27:58;96975.66;;;8.37;100.00
4814;BME280;15375;48.540;9.268;2023-02-23T01:30:23;96967.63;;;8.29;100.00
4814;BME280;15375;48.540;9.268;2023-02-23T01:32:49;96974.13;;;8.36;100.00
4814;BME280;15375;48.540;9.268;2023-02-23T01:35:15;96974.13;;;8.36;100.00
4814;BME280;15375;48.540;9.268;2023-02-23T01:37:41;96975.31;;;8.34;100.00
4814;BME280;15375;48.540;9.268;2023-02-23T01:40:14;96965.25;;;8.31;100.00
4814;BME280;15375;48.540;9.268;2023-02-23T01:42:42;96977.19;;;8.38;100.00
4814;BME280;15375;48.540;9.268;2023-02-23T01:45:21;96955.69;;;8.20;100.00
4814;BME280;15375;48.540;9.268;2023-02-23T01:47:49;96977.34;;;8.27;100.00
4814;BME280;15375;48.540;9.268;2023-02-23T01:50:16;96971.09;;;8.30;100.00
4814;BME280;15375;48.540;9.268;2023-02-23T01:52:46;96957.22;;;8.21;100.00
4814;BME280;15375;48.540;9.268;2023-02-23T01:55:15;96970.81;;;8.21;100.00
4814;BME280;15375;48.540;9.268;2023-02-23T01:57:47;96972.03;;;8.16;100.00
4814;BME280;15375;48.540;9.268;2023-02-23T02:00:14;96951.59;;;8.08;100.00
4814;BME280;15375;48.540;9.268;2023-02-23T02:02:40;96957.44;;;8.07;100.00
4814;BME280;15375;48.540;9.268;2023-02-23T02:05:06;96970.13;;;8.13;100.00
4814;BME280;15375;48.540;9.268;2023-02-23T02:07:37;96958.97;;;8.08;100.00
4814;BME280;15375;48.540;9.268;2023-02-23T02:10:04;96965.38;;;8.21;100.00
4814;BME280;15375;48.540;9.268;2023-02-23T02:12:43;96967.28;;;8.24;100.00
4814;BME280;15375;48.540;9.268;2023-02-23T02:15:10;96958.00;;;8.21;100.00
4814;BME280;15375;48.540;9.268;2023-02-23T02:26:20;96925.09;;;8.16;100.00
4814;BME280;15375;48.540;9.268;2023-02-23T02:29:52;96952.47;;;8.28;100.00
4814;BME280;15375;48.540;9.268;2023-02-23T02:32:28;96958.56;;;8.36;100.00
4814;BME280;15375;48.540;9.268;2023-02-23T02:35:14;96955.94;;;8.32;100.00
4814;BME280;15375;48.540;9.268;2023-02-23T02:37:55;96936.38;;;8.14;100.00
4814;BME280;15375;48.540;9.268;2023-02-23T02:48:31;96956.31;;;8.04;100.00
4814;BME280;15375;48.540;9.268;2023-02-23T02:51:03;96963.69;;;8.04;100.00
4814;BME280;15375;48.540;9.268;2023-02-23T02:53:36;96954.75;;;8.03;100.00
4814;BME280;15375;48.540;9.268;2023-02-23T02:56:05;96932.06;;;7.90;100.00
4814;BME280;15375;48.540;9.268;2023-02-23T02:58:31;96950.16;;;8.00;100.00
4814;BME280;15375;48.540;9.268;2023-02-23T03:01:05;96954.63;;;8.14;100.00
4814;BME280;15375;48.540;9.268;2023-02-23T03:03:49;96938.38;;;8.10;100.00
4814;BME280;15375;48.540;9.268;2023-02-23T03:06:35;96953.03;;;8.16;100.00
4814;BME280;15375;48.540;9.268;2023-02-23T03:12:52;96958.06;;;8.18;100.00
4814;BME280;15375;48.540;9.268;2023-02-23T03:15:58;96951.53;;;8.12;100.00
4814;BME280;15375;48.540;9.268;2023-02-23T03:27:48;96936.50;;;7.77;100.00
4814;BME280;15375;48.540;9.268;2023-02-23T03:33:48;96942.56;;;7.88;100.00
4814;BME280;15375;48.540;9.268;2023-02-23T03:36:39;96945.94;;;7.96;100.00
4814;BME280;15375;48.540;9.268;2023-02-23T03:39:46;96951.34;;;7.99;100.00
4814;BME280;15375;48.540;9.268;2023-02-23T03:42:36;96957.09;;;8.05;100.00
4814;BME280;15375;48.540;9.268;2023-02-23T03:45:23;96946.91;;;8.09;100.00
4814;BME280;15375;48.540;9.268;2023-02-23T03:48:11;96949.75;;;8.02;100.00
4814;BME280;15375;48.540;9.268;2023-02-23T03:51:00;96952.97;;;7.93;100.00
4814;BME280;15375;48.540;9.268;2023-02-23T03:53:53;96948.66;;;7.96;100.00
4814;BME280;15375;48.540;9.268;2023-02-23T03:56:40;96945.44;;;8.04;100.00
4814;BME280;15375;48.540;9.268;2023-02-23T03:59:31;96940.81;;;8.01;100.00
4814;BME280;15375;48.540;9.268;2023-02-23T04:02:18;96956.41;;;7.97;100.00
4814;BME280;15375;48.540;9.268;2023-02-23T04:05:08;96956.63;;;8.10;100.00
4814;BME280;15375;48.540;9.268;2023-02-23T04:07:54;96951.53;;;8.12;100.00
4814;BME280;15375;48.540;9.268;2023-02-23T04:10:45;96944.94;;;8.13;100.00
4814;BME280;15375;48.540;9.268;2023-02-23T04:13:32;96954.63;;;8.14;100.00
4814;BME280;15375;48.540;9.268;2023-02-23T04:16:00;96954.94;;;8.19;100.00
4814;BME280;15375;48.540;9.268;2023-02-23T04:18:33;96941.81;;;8.14;100.00
4814;BME280;15375;48.540;9.268;2023-02-23T04:20:59;96954.47;;;8.24;100.00
4814;BME280;15375;48.540;9.268;2023-02-23T04:23:26;96958.72;;;8.25;100.00
4814;BME280;15375;48.540;9.268;2023-02-23T04:25:52;96951.41;;;8.22;100.00
4814;BME280;15375;48.540;9.268;2023-02-23T04:28:21;96940.63;;;8.15;100.00
4814;BME280;15375;48.540;9.268;2023-02-23T04:30:47;96956.81;;;8.22;100.00
4814;BME280;15375;48.540;9.268;2023-02-23T04:33:13;96955.63;;;8.23;100.00
4814;BME280;15375;48.540;9.268;2023-02-23T04:35:38;96955.25;;;8.25;100.00
4814;BME280;15375;48.540;9.268;2023-02-23T04:38:04;96954.47;;;8.24;100.00
4814;BME280;15375;48.540;9.268;2023-02-23T04:40:29;96935.72;;;8.07;100.00
4814;BME280;15375;48.540;9.268;2023-02-23T04:42:55;96947.66;;;8.13;100.00
4814;BME280;15375;48.540;9.268;2023-02-23T04:45:21;96956.56;;;8.13;100.00
4814;BME280;15375;48.540;9.268;2023-02-23T04:47:47;96956.97;;;8.12;100.00
4814;BME280;15375;48.540;9.268;2023-02-23T04:50:13;96958.47;;;8.16;100.00
4814;BME280;15375;48.540;9.268;2023-02-23T04:52:39;96944.22;;;8.09;100.00
4814;BME280;15375;48.540;9.268;2023-02-23T04:55:05;96961.53;;;8.18;100.00
4814;BME280;15375;48.540;9.268;2023-02-23T04:57:33;96949.19;;;8.14;100.00
4814;BME280;15375;48.540;9.268;2023-02-23T04:59:59;96963.06;;;8.19;100.00
4814;BME280;15375;48.540;9.268;2023-02-23T05:02:24;96956.09;;;8.18;100.00
4814;BME280;15375;48.540;9.268;2023-02-23T05:04:50;96943.75;;;8.14;100.00
4814;BME280;15375;48.540;9.268;2023-02-23T05:07:15;96955.44;;;8.11;100.00
4814;BME280;15375;48.540;9.268;2023-02-23T05:09:41;96950.47;;;8.06;100.00
4814;BME280;15375;48.540;9.268;2023-02-23T05:12:06;96952.31;;;8.12;100.00
4814;BME280;15375;48.540;9.268;2023-02-23T05:14:32;96958.06;;;8.18;100.00
4814;BME280;15375;48.540;9.268;2023-02-23T05:16:57;96956.63;;;8.10;100.00
4814;BME280;15375;48.540;9.268;2023-02-23T05:19:22;96955.03;;;8.12;100.00
4814;BME280;15375;48.540;9.268;2023-02-23T05:21:48;96944.31;;;8.02;100.00
4814;BME280;15375;48.540;9.268;2023-02-23T05:24:15;96955.81;;;8.13;100.00
4814;BME280;15375;48.540;9.268;2023-02-23T05:26:41;96947.38;;;8.04;100.00
4814;BME280;15375;48.540;9.268;2023-02-23T05:29:06;96951.19;;;8.10;100.00
4814;BME280;15375;48.540;9.268;2023-02-23T05:31:32;96954.72;;;8.07;100.00
4814;BME280;15375;48.540;9.268;2023-02-23T05:33:57;96935.50;;;7.94;100.00
4814;BME280;15375;48.540;9.268;2023-02-23T05:36:23;96958.53;;;8.13;100.00
4814;BME280;15375;48.540;9.268;2023-02-23T05:38:48;96947.81;;;8.02;100.00
4814;BME280;15375;48.540;9.268;2023-02-23T05:41:16;96959.69;;;8.12;100.00
4814;BME280;15375;48.540;9.268;2023-02-23T05:43:41;96961.63;;;8.11;100.00
4814;BME280;15375;48.540;9.268;2023-02-23T05:46:08;96965.91;;;8.12;100.00
4814;BME280;15375;48.540;9.268;2023-02-23T05:48:34;96947.81;;;8.02;100.00
4814;BME280;15375;48.540;9.268;2023-02-23T05:51:03;96954.28;;;8.08;100.00
4814;BME280;15375;48.540;9.268;2023-02-23T05:53:29;96945.75;;;8.10;100.00
4814;BME280;15375;48.540;9.268;2023-02-23T05:55:55;96934.16;;;8.06;100.00
4814;BME280;15375;48.540;9.268;2023-02-23T05:58:20;96953.78;;;8.17;100.00
4814;BME280;15375;48.540;9.268;2023-02-23T06:00:45;96957.59;;;8.23;100.00
4814;BME280;15375;48.540;9.268;2023-02-23T06:03:10;96944.94;;;8.13;100.00
4814;BME280;15375;48.540;9.268;2023-02-23T06:05:36;96954.56;;;8.17;100.00
4814;BME280;15375;48.540;9.268;2023-02-23T06:08:01;96961.28;;;8.09;100.00
4814;BME280;15375;48.540;9.268;2023-02-23T06:10:26;96961.63;;;8.11;100.00
4814;BME280;15375;48.540;9.268;2023-02-23T06:12:52;96964.69;;;8.13;100.00
4814;BME280;15375;48.540;9.268;2023-02-23T06:15:17;96957.78;;;8.09;100.00
4814;BME280;15375;48.540;9.268;2023-02-23T06:17:43;96948.72;;;7.92;100.00
4814;BME280;15375;48.540;9.268;2023-02-23T06:20:10;96964.56;;;7.97;100.00
4814;BME280;15375;48.540;9.268;2023-02-23T06:22:35;96979.16;;;8.07;100.00
4814;BME280;15375;48.540;9.268;2023-02-23T06:25:01;96981.47;;;8.08;100.00
4814;BME280;15375;48.540;9.268;2023-02-23T06:27:29;96964.03;;;8.06;100.00
4814;BME280;15375;48.540;9.268;2023-02-23T06:29:54;96970.03;;;7.94;100.00
4814;BME280;15375;48.540;9.268;2023-02-23T06:32:20;96975.75;;;8.03;100.00
4814;BME280;15375;48.540;9.268;2023-02-23T06:34:45;96966.53;;;7.93;100.00
4814;BME280;15375;48.540;9.268;2023-02-23T06:37:10;96964.66;;;7.90;100.00
4814;BME280;15375;48.540;9.268;2023-02-23T06:39:36;96988.94;;;8.01;100.00
4814;BME280;15375;48.540;9.268;2023-02-23T06:42:01;96995.88;;;8.05;100.00
4814;BME280;15375;48.540;9.268;2023-02-23T06:44:27;96988.09;;;8.07;100.00
4814;BME280;15375;48.540;9.268;2023-02-23T06:46:52;96980.06;;;7.97;100.00
4814;BME280;15375;48.540;9.268;2023-02-23T06:49:17;96993.50;;;8.07;100.00
4814;BME280;15375;48.540;9.268;2023-02-23T06:51:43;97000.06;;;8.10;100.00
4814;BME280;15375;48.540;9.268;2023-02-23T06:54:08;96991.97;;;8.06;100.00
4814;BME280;15375;48.540;9.268;2023-02-23T06:56:33;97006.19;;;8.17;100.00
4814;BME280;15375;48.540;9.268;2023-02-23T06:58:59;96997.97;;;8.21;100.00
4814;BME280;15375;48.540;9.268;2023-02-23T07:01:24;96986.81;;;8.15;100.00
4814;BME280;15375;48.540;9.268;2023-02-23T07:03:49;96996.09;;;8.18;100.00
4814;BME280;15375;48.540;9.268;2023-02-23T07:06:15;97011.84;;;8.30;100.00
4814;BME280;15375;48.540;9.268;2023-02-23T07:08:40;97001.81;;;8.23;100.00
4814;BME280;15375;48.540;9.268;2023-02-23T07:11:12;97014.94;;;8.32;100.00
4814;BME280;15375;48.540;9.268;2023-02-23T07:13:38;97017.19;;;8.37;100.00
4814;BME280;15375;48.540;9.268;2023-02-23T07:16:04;97024.88;;;8.42;100.00
4814;BME280;15375;48.540;9.268;2023-02-23T07:18:30;97013.69;;;8.37;100.00
4814;BME280;15375;48.540;9.268;2023-02-23T07:20:55;97017.84;;;8.45;100.00
4814;BME280;15375;48.540;9.268;2023-02-23T07:23:21;97026.31;;;8.50;100.00
4814;BME280;15375;48.540;9.268;2023-02-23T07:25:49;97028.75;;;8.41;100.00
4814;BME280;15375;48.540;9.268;2023-02-23T07:28:15;97020.38;;;8.32;100.00
4814;BME280;15375;48.540;9.268;2023-02-23T07:30:40;97025.78;;;8.32;100.00
4814;BME280;15375;48.540;9.268;2023-02-23T07:33:05;97013.34;;;8.34;100.00
4814;BME280;15375;48.540;9.268;2023-02-23T07:35:31;96996.38;;;8.27;100.00
4814;BME280;15375;48.540;9.268;2023-02-23T07:37:56;96991.72;;;8.24;100.00
